METAR Data
IDs: Format: Raw Decoded Include TAF

Data at: 1536 UTC 27 Nov 2021

LBPD 271530Z AUTO VRB02KT 5000 BR FEW008/// 06/05 Q1006 NOSIG